sensor_id;sensor_type;location;lat;lon;timestamp;P1;durP1;ratioP1;P2;durP2;ratioP2
22298;SDS011;11317;51.072;17.036;2023-02-23T00:01:26;19.38;;;8.35;;
22298;SDS011;11317;51.072;17.036;2023-02-23T00:03:54;17.42;;;9.15;;
22298;SDS011;11317;51.072;17.036;2023-02-23T00:06:22;29.80;;;8.85;;
22298;SDS011;11317;51.072;17.036;2023-02-23T00:08:50;25.27;;;9.55;;
22298;SDS011;11317;51.072;17.036;2023-02-23T00:11:16;24.58;;;8.75;;
22298;SDS011;11317;51.072;17.036;2023-02-23T00:13:44;16.45;;;7.72;;
22298;SDS011;11317;51.072;17.036;2023-02-23T00:16:18;24.38;;;8.45;;
22298;SDS011;11317;51.072;17.036;2023-02-23T00:18:46;20.63;;;8.38;;
22298;SDS011;11317;51.072;17.036;2023-02-23T00:21:18;18.77;;;9.32;;
22298;SDS011;11317;51.072;17.036;2023-02-23T00:23:56;13.57;;;7.03;;
22298;SDS011;11317;51.072;17.036;2023-02-23T00:26:28;23.30;;;8.75;;
22298;SDS011;11317;51.072;17.036;2023-02-23T00:28:58;24.27;;;8.10;;
22298;SDS011;11317;51.072;17.036;2023-02-23T00:31:24;20.55;;;9.13;;
22298;SDS011;11317;51.072;17.036;2023-02-23T00:33:51;19.98;;;7.30;;
22298;SDS011;11317;51.072;17.036;2023-02-23T00:36:19;25.75;;;10.38;;
22298;SDS011;11317;51.072;17.036;2023-02-23T00:38:47;23.45;;;8.68;;
22298;SDS011;11317;51.072;17.036;2023-02-23T00:41:17;16.48;;;7.97;;
22298;SDS011;11317;51.072;17.036;2023-02-23T00:43:46;24.00;;;8.68;;
22298;SDS011;11317;51.072;17.036;2023-02-23T00:46:13;20.50;;;8.38;;
22298;SDS011;11317;51.072;17.036;2023-02-23T00:48:43;24.17;;;9.68;;
22298;SDS011;11317;51.072;17.036;2023-02-23T00:51:10;19.40;;;7.90;;
22298;SDS011;11317;51.072;17.036;2023-02-23T00:53:36;27.80;;;9.65;;
22298;SDS011;11317;51.072;17.036;2023-02-23T00:56:06;18.67;;;8.18;;
22298;SDS011;11317;51.072;17.036;2023-02-23T00:58:33;17.80;;;8.23;;
22298;SDS011;11317;51.072;17.036;2023-02-23T01:00:59;22.05;;;8.20;;
22298;SDS011;11317;51.072;17.036;2023-02-23T01:03:26;31.33;;;8.98;;
22298;SDS011;11317;51.072;17.036;2023-02-23T01:05:52;19.60;;;8.68;;
22298;SDS011;11317;51.072;17.036;2023-02-23T01:08:19;20.25;;;7.82;;
22298;SDS011;11317;51.072;17.036;2023-02-23T01:10:49;20.25;;;8.48;;
22298;SDS011;11317;51.072;17.036;2023-02-23T01:13:21;19.02;;;8.50;;
22298;SDS011;11317;51.072;17.036;2023-02-23T01:15:47;19.30;;;8.10;;
22298;SDS011;11317;51.072;17.036;2023-02-23T01:18:17;25.80;;;9.38;;
22298;SDS011;11317;51.072;17.036;2023-02-23T01:20:44;26.52;;;9.18;;
22298;SDS011;11317;51.072;17.036;2023-02-23T01:23:13;23.90;;;8.50;;
22298;SDS011;11317;51.072;17.036;2023-02-23T01:25:40;19.65;;;9.32;;
22298;SDS011;11317;51.072;17.036;2023-02-23T01:28:08;21.55;;;8.60;;
22298;SDS011;11317;51.072;17.036;2023-02-23T01:30:35;31.83;;;9.18;;
22298;SDS011;11317;51.072;17.036;2023-02-23T01:33:01;18.33;;;8.23;;
22298;SDS011;11317;51.072;17.036;2023-02-23T01:35:27;22.45;;;10.27;;
22298;SDS011;11317;51.072;17.036;2023-02-23T01:37:53;22.90;;;9.45;;
22298;SDS011;11317;51.072;17.036;2023-02-23T01:40:21;25.70;;;9.43;;
22298;SDS011;11317;51.072;17.036;2023-02-23T01:42:55;21.67;;;9.10;;
22298;SDS011;11317;51.072;17.036;2023-02-23T01:45:39;20.92;;;9.13;;
22298;SDS011;11317;51.072;17.036;2023-02-23T01:48:19;19.40;;;8.05;;
22298;SDS011;11317;51.072;17.036;2023-02-23T01:50:55;30.48;;;8.82;;
22298;SDS011;11317;51.072;17.036;2023-02-23T01:53:26;19.92;;;8.30;;
22298;SDS011;11317;51.072;17.036;2023-02-23T01:55:59;19.52;;;8.57;;
22298;SDS011;11317;51.072;17.036;2023-02-23T01:58:35;23.55;;;9.02;;
22298;SDS011;11317;51.072;17.036;2023-02-23T02:01:16;22.05;;;9.02;;
22298;SDS011;11317;51.072;17.036;2023-02-23T02:04:01;21.88;;;8.07;;
22298;SDS011;11317;51.072;17.036;2023-02-23T02:06:31;19.75;;;8.85;;
22298;SDS011;11317;51.072;17.036;2023-02-23T02:09:09;21.75;;;8.52;;
22298;SDS011;11317;51.072;17.036;2023-02-23T02:11:41;21.40;;;8.07;;
22298;SDS011;11317;51.072;17.036;2023-02-23T02:14:14;24.70;;;8.82;;
22298;SDS011;11317;51.072;17.036;2023-02-23T02:28:26;28.50;;;8.85;;
22298;SDS011;11317;51.072;17.036;2023-02-23T02:42:05;21.50;;;9.15;;
22298;SDS011;11317;51.072;17.036;2023-02-23T02:44:57;18.90;;;8.75;;
22298;SDS011;11317;51.072;17.036;2023-02-23T02:47:32;24.88;;;9.23;;
22298;SDS011;11317;51.072;17.036;2023-02-23T02:52:38;21.50;;;8.90;;
22298;SDS011;11317;51.072;17.036;2023-02-23T02:55:13;21.75;;;8.10;;
22298;SDS011;11317;51.072;17.036;2023-02-23T03:00:21;21.35;;;8.68;;
22298;SDS011;11317;51.072;17.036;2023-02-23T03:03:33;23.27;;;8.77;;
22298;SDS011;11317;51.072;17.036;2023-02-23T03:06:21;21.25;;;9.43;;
22298;SDS011;11317;51.072;17.036;2023-02-23T03:09:10;21.55;;;9.82;;
22298;SDS011;11317;51.072;17.036;2023-02-23T03:12:07;23.67;;;9.73;;
22298;SDS011;11317;51.072;17.036;2023-02-23T03:15:07;18.73;;;9.13;;
22298;SDS011;11317;51.072;17.036;2023-02-23T03:18:09;18.67;;;9.13;;
22298;SDS011;11317;51.072;17.036;2023-02-23T03:21:07;17.60;;;9.57;;
22298;SDS011;11317;51.072;17.036;2023-02-23T03:27:08;21.48;;;10.00;;
22298;SDS011;11317;51.072;17.036;2023-02-23T03:30:36;18.50;;;7.73;;
22298;SDS011;11317;51.072;17.036;2023-02-23T03:33:34;19.90;;;9.07;;
22298;SDS011;11317;51.072;17.036;2023-02-23T03:36:22;26.95;;;10.63;;
22298;SDS011;11317;51.072;17.036;2023-02-23T03:42:27;34.55;;;11.55;;
22298;SDS011;11317;51.072;17.036;2023-02-23T03:45:18;26.33;;;10.35;;
22298;SDS011;11317;51.072;17.036;2023-02-23T03:48:05;24.80;;;11.25;;
22298;SDS011;11317;51.072;17.036;2023-02-23T03:50:55;29.27;;;12.20;;
22298;SDS011;11317;51.072;17.036;2023-02-23T03:54:06;31.25;;;11.38;;
22298;SDS011;11317;51.072;17.036;2023-02-23T03:56:56;28.85;;;11.07;;
22298;SDS011;11317;51.072;17.036;2023-02-23T03:59:46;23.13;;;10.65;;
22298;SDS011;11317;51.072;17.036;2023-02-23T04:02:37;28.88;;;11.30;;
22298;SDS011;11317;51.072;17.036;2023-02-23T04:05:24;31.55;;;11.88;;
22298;SDS011;11317;51.072;17.036;2023-02-23T04:08:11;31.33;;;11.70;;
22298;SDS011;11317;51.072;17.036;2023-02-23T04:11:20;32.50;;;12.00;;
22298;SDS011;11317;51.072;17.036;2023-02-23T04:14:12;27.98;;;11.73;;
22298;SDS011;11317;51.072;17.036;2023-02-23T04:16:46;29.08;;;11.23;;
22298;SDS011;11317;51.072;17.036;2023-02-23T04:19:13;30.52;;;11.60;;
22298;SDS011;11317;51.072;17.036;2023-02-23T04:21:39;42.00;;;13.20;;
22298;SDS011;11317;51.072;17.036;2023-02-23T04:24:05;31.08;;;12.35;;
22298;SDS011;11317;51.072;17.036;2023-02-23T04:26:31;37.20;;;13.38;;
22298;SDS011;11317;51.072;17.036;2023-02-23T04:28:57;33.42;;;13.20;;
22298;SDS011;11317;51.072;17.036;2023-02-23T04:31:23;33.60;;;13.00;;
22298;SDS011;11317;51.072;17.036;2023-02-23T04:33:49;33.42;;;11.88;;
22298;SDS011;11317;51.072;17.036;2023-02-23T04:36:15;38.05;;;14.10;;
22298;SDS011;11317;51.072;17.036;2023-02-23T04:38:41;37.42;;;13.82;;
22298;SDS011;11317;51.072;17.036;2023-02-23T04:41:07;32.53;;;13.02;;
22298;SDS011;11317;51.072;17.036;2023-02-23T04:43:34;34.10;;;12.32;;
22298;SDS011;11317;51.072;17.036;2023-02-23T04:46:00;31.90;;;13.10;;
22298;SDS011;11317;51.072;17.036;2023-02-23T04:48:26;33.47;;;13.63;;
22298;SDS011;11317;51.072;17.036;2023-02-23T04:50:52;38.88;;;13.60;;
22298;SDS011;11317;51.072;17.036;2023-02-23T04:53:18;33.50;;;14.80;;
22298;SDS011;11317;51.072;17.036;2023-02-23T04:55:45;33.95;;;13.00;;
22298;SDS011;11317;51.072;17.036;2023-02-23T04:58:11;38.00;;;14.70;;
22298;SDS011;11317;51.072;17.036;2023-02-23T05:00:38;31.35;;;12.35;;
22298;SDS011;11317;51.072;17.036;2023-02-23T05:03:04;46.33;;;16.30;;
22298;SDS011;11317;51.072;17.036;2023-02-23T05:05:31;34.58;;;14.20;;
22298;SDS011;11317;51.072;17.036;2023-02-23T05:07:57;37.40;;;16.48;;
22298;SDS011;11317;51.072;17.036;2023-02-23T05:10:23;39.40;;;15.40;;
22298;SDS011;11317;51.072;17.036;2023-02-23T05:12:49;37.30;;;16.80;;
22298;SDS011;11317;51.072;17.036;2023-02-23T05:15:15;37.15;;;15.15;;
22298;SDS011;11317;51.072;17.036;2023-02-23T05:17:42;36.95;;;15.63;;
22298;SDS011;11317;51.072;17.036;2023-02-23T05:20:08;42.42;;;16.13;;
22298;SDS011;11317;51.072;17.036;2023-02-23T05:22:35;43.10;;;16.02;;
22298;SDS011;11317;51.072;17.036;2023-02-23T05:25:01;44.67;;;17.23;;
22298;SDS011;11317;51.072;17.036;2023-02-23T05:27:28;44.55;;;16.70;;
22298;SDS011;11317;51.072;17.036;2023-02-23T05:29:54;41.10;;;16.92;;
22298;SDS011;11317;51.072;17.036;2023-02-23T05:32:20;44.40;;;16.15;;
22298;SDS011;11317;51.072;17.036;2023-02-23T05:34:46;49.83;;;19.23;;
22298;SDS011;11317;51.072;17.036;2023-02-23T05:37:12;40.80;;;15.88;;
22298;SDS011;11317;51.072;17.036;2023-02-23T05:39:39;43.67;;;18.02;;
22298;SDS011;11317;51.072;17.036;2023-02-23T05:42:05;35.95;;;16.83;;
22298;SDS011;11317;51.072;17.036;2023-02-23T05:44:31;38.95;;;16.67;;
22298;SDS011;11317;51.072;17.036;2023-02-23T05:46:57;41.67;;;17.27;;
22298;SDS011;11317;51.072;17.036;2023-02-23T05:49:23;40.47;;;16.27;;
22298;SDS011;11317;51.072;17.036;2023-02-23T05:51:49;46.90;;;18.40;;
22298;SDS011;11317;51.072;17.036;2023-02-23T05:54:15;42.60;;;17.85;;
22298;SDS011;11317;51.072;17.036;2023-02-23T05:56:42;45.85;;;18.35;;
22298;SDS011;11317;51.072;17.036;2023-02-23T05:59:08;46.03;;;18.90;;
22298;SDS011;11317;51.072;17.036;2023-02-23T06:01:34;45.35;;;18.05;;
22298;SDS011;11317;51.072;17.036;2023-02-23T06:04:00;49.70;;;18.60;;
22298;SDS011;11317;51.072;17.036;2023-02-23T06:06:26;43.80;;;18.88;;
22298;SDS011;11317;51.072;17.036;2023-02-23T06:08:52;47.88;;;18.80;;
22298;SDS011;11317;51.072;17.036;2023-02-23T06:11:18;42.08;;;18.52;;
22298;SDS011;11317;51.072;17.036;2023-02-23T06:13:44;47.72;;;17.48;;
22298;SDS011;11317;51.072;17.036;2023-02-23T06:16:10;54.70;;;19.42;;
22298;SDS011;11317;51.072;17.036;2023-02-23T06:18:36;43.85;;;17.08;;
22298;SDS011;11317;51.072;17.036;2023-02-23T06:21:03;37.20;;;17.88;;
22298;SDS011;11317;51.072;17.036;2023-02-23T06:23:29;51.40;;;19.85;;
22298;SDS011;11317;51.072;17.036;2023-02-23T06:25:56;44.50;;;17.85;;
22298;SDS011;11317;51.072;17.036;2023-02-23T06:28:23;42.80;;;17.80;;
22298;SDS011;11317;51.072;17.036;2023-02-23T06:30:53;48.90;;;19.20;;
22298;SDS011;11317;51.072;17.036;2023-02-23T06:33:19;48.60;;;18.38;;
22298;SDS011;11317;51.072;17.036;2023-02-23T06:35:45;44.10;;;18.88;;
22298;SDS011;11317;51.072;17.036;2023-02-23T06:38:11;40.53;;;18.52;;
22298;SDS011;11317;51.072;17.036;2023-02-23T06:40:38;42.30;;;18.48;;
22298;SDS011;11317;51.072;17.036;2023-02-23T06:43:04;47.22;;;18.45;;
22298;SDS011;11317;51.072;17.036;2023-02-23T06:45:30;44.60;;;17.83;;
22298;SDS011;11317;51.072;17.036;2023-02-23T06:47:57;37.38;;;17.23;;
22298;SDS011;11317;51.072;17.036;2023-02-23T06:50:23;47.40;;;18.15;;
22298;SDS011;11317;51.072;17.036;2023-02-23T06:52:49;44.65;;;18.20;;
22298;SDS011;11317;51.072;17.036;2023-02-23T06:55:15;42.75;;;18.73;;
22298;SDS011;11317;51.072;17.036;2023-02-23T06:57:41;49.67;;;19.77;;
22298;SDS011;11317;51.072;17.036;2023-02-23T07:00:08;50.63;;;19.63;;
22298;SDS011;11317;51.072;17.036;2023-02-23T07:02:39;42.35;;;17.98;;
22298;SDS011;11317;51.072;17.036;2023-02-23T07:05:06;42.85;;;18.60;;
22298;SDS011;11317;51.072;17.036;2023-02-23T07:07:32;47.83;;;18.42;;
22298;SDS011;11317;51.072;17.036;2023-02-23T07:09:58;44.85;;;16.08;;
22298;SDS011;11317;51.072;17.036;2023-02-23T07:12:24;53.22;;;17.63;;
22298;SDS011;11317;51.072;17.036;2023-02-23T07:14:50;48.53;;;17.13;;
22298;SDS011;11317;51.072;17.036;2023-02-23T07:17:16;46.25;;;17.70;;
22298;SDS011;11317;51.072;17.036;2023-02-23T07:19:42;38.45;;;17.60;;
22298;SDS011;11317;51.072;17.036;2023-02-23T07:22:08;46.15;;;17.90;;
22298;SDS011;11317;51.072;17.036;2023-02-23T07:24:35;40.72;;;17.63;;
22298;SDS011;11317;51.072;17.036;2023-02-23T07:27:02;44.53;;;19.05;;
22298;SDS011;11317;51.072;17.036;2023-02-23T07:29:28;48.40;;;17.85;;
22298;SDS011;11317;51.072;17.036;2023-02-23T07:31:54;46.33;;;17.92;;
22298;SDS011;11317;51.072;17.036;2023-02-23T07:34:20;45.95;;;18.33;;
22298;SDS011;11317;51.072;17.036;2023-02-23T07:36:46;36.05;;;17.10;;
22298;SDS011;11317;51.072;17.036;2023-02-23T07:39:12;40.58;;;16.98;;
22298;SDS011;11317;51.072;17.036;2023-02-23T07:41:38;36.30;;;16.45;;
22298;SDS011;11317;51.072;17.036;2023-02-23T07:44:04;41.55;;;17.13;;
22298;SDS011;11317;51.072;17.036;2023-02-23T07:46:30;43.03;;;18.10;;
22298;SDS011;11317;51.072;17.036;2023-02-23T07:48:56;47.15;;;18.13;;
22298;SDS011;11317;51.072;17.036;2023-02-23T07:51:22;43.85;;;17.85;;
22298;SDS011;11317;51.072;17.036;2023-02-23T07:53:48;34.80;;;17.52;;
22298;SDS011;11317;51.072;17.036;2023-02-23T07:56:14;37.15;;;17.00;;
22298;SDS011;11317;51.072;17.036;2023-02-23T07:58:41;33.72;;;16.67;;
22298;SDS011;11317;51.072;17.036;2023-02-23T08:01:08;35.08;;;16.35;;
22298;SDS011;11317;51.072;17.036;2023-02-23T08:03:35;43.13;;;17.23;;
22298;SDS011;11317;51.072;17.036;2023-02-23T08:06:01;34.42;;;17.20;;
22298;SDS011;11317;51.072;17.036;2023-02-23T08:08:27;38.65;;;17.52;;
22298;SDS011;11317;51.072;17.036;2023-02-23T08:11:00;34.70;;;16.15;;
22298;SDS011;11317;51.072;17.036;2023-02-23T08:13:27;35.92;;;16.65;;
22298;SDS011;11317;51.072;17.036;2023-02-23T08:15:53;39.85;;;15.75;;
22298;SDS011;11317;51.072;17.036;2023-02-23T08:18:20;33.63;;;16.00;;
22298;SDS011;11317;51.072;17.036;2023-02-23T08:20:46;37.85;;;17.38;;
22298;SDS011;11317;51.072;17.036;2023-02-23T08:23:12;39.88;;;16.73;;
22298;SDS011;11317;51.072;17.036;2023-02-23T08:25:38;34.45;;;16.95;;
22298;SDS011;11317;51.072;17.036;2023-02-23T08:28:04;38.15;;;17.13;;
22298;SDS011;11317;51.072;17.036;2023-02-23T08:30:31;33.00;;;17.50;;
22298;SDS011;11317;51.072;17.036;2023-02-23T08:32:58;31.73;;;16.88;;
22298;SDS011;11317;51.072;17.036;2023-02-23T08:35:25;32.03;;;15.32;;
22298;SDS011;11317;51.072;17.036;2023-02-23T08:37:52;29.45;;;15.80;;
22298;SDS011;11317;51.072;17.036;2023-02-23T08:40:18;34.03;;;16.63;;
22298;SDS011;11317;51.072;17.036;2023-02-23T08:42:45;33.60;;;15.27;;
22298;SDS011;11317;51.072;17.036;2023-02-23T08:45:13;36.00;;;17.08;;
22298;SDS011;11317;51.072;17.036;2023-02-23T08:47:39;33.40;;;16.50;;
22298;SDS011;11317;51.072;17.036;2023-02-23T08:50:05;31.15;;;16.45;;
22298;SDS011;11317;51.072;17.036;2023-02-23T08:52:31;30.77;;;15.90;;
22298;SDS011;11317;51.072;17.036;2023-02-23T08:54:58;34.05;;;17.08;;
22298;SDS011;11317;51.072;17.036;2023-02-23T08:57:23;30.52;;;16.15;;
22298;SDS011;11317;51.072;17.036;2023-02-23T08:59:52;32.40;;;15.77;;
22298;SDS011;11317;51.072;17.036;2023-02-23T09:02:18;31.65;;;16.70;;
22298;SDS011;11317;51.072;17.036;2023-02-23T09:04:45;33.25;;;17.65;;
22298;SDS011;11317;51.072;17.036;2023-02-23T09:07:15;26.00;;;15.80;;
22298;SDS011;11317;51.072;17.036;2023-02-23T09:09:41;29.17;;;16.27;;
22298;SDS011;11317;51.072;17.036;2023-02-23T09:12:08;29.17;;;16.02;;
22298;SDS011;11317;51.072;17.036;2023-02-23T09:14:34;31.02;;;15.80;;
22298;SDS011;11317;51.072;17.036;2023-02-23T09:17:00;27.83;;;15.95;;
22298;SDS011;11317;51.072;17.036;2023-02-23T09:19:27;33.53;;;16.50;;
22298;SDS011;11317;51.072;17.036;2023-02-23T09:21:53;28.65;;;14.55;;
22298;SDS011;11317;51.072;17.036;2023-02-23T09:24:19;28.05;;;15.38;;
22298;SDS011;11317;51.072;17.036;2023-02-23T09:26:46;35.05;;;16.40;;
22298;SDS011;11317;51.072;17.036;2023-02-23T09:29:12;32.28;;;16.38;;
22298;SDS011;11317;51.072;17.036;2023-02-23T09:31:39;24.98;;;14.45;;
22298;SDS011;11317;51.072;17.036;2023-02-23T09:34:04;23.70;;;13.90;;
22298;SDS011;11317;51.072;17.036;2023-02-23T09:36:33;23.88;;;14.30;;
22298;SDS011;11317;51.072;17.036;2023-02-23T09:38:59;32.05;;;18.10;;
22298;SDS011;11317;51.072;17.036;2023-02-23T09:47:24;32.55;;;15.52;;
22298;SDS011;11317;51.072;17.036;2023-02-23T09:49:57;29.77;;;16.15;;
22298;SDS011;11317;51.072;17.036;2023-02-23T09:52:27;34.63;;;16.38;;
22298;SDS011;11317;51.072;17.036;2023-02-23T09:55:07;31.75;;;14.80;;
22298;SDS011;11317;51.072;17.036;2023-02-23T09:57:39;29.48;;;14.65;;
22298;SDS011;11317;51.072;17.036;2023-02-23T10:00:16;31.20;;;16.23;;
22298;SDS011;11317;51.072;17.036;2023-02-23T10:03:10;28.83;;;14.70;;
22298;SDS011;11317;51.072;17.036;2023-02-23T10:05:51;33.08;;;16.20;;
22298;SDS011;11317;51.072;17.036;2023-02-23T10:11:32;28.55;;;15.20;;
22298;SDS011;11317;51.072;17.036;2023-02-23T10:23:17;28.52;;;14.55;;
22298;SDS011;11317;51.072;17.036;2023-02-23T10:25:51;28.73;;;15.13;;
22298;SDS011;11317;51.072;17.036;2023-02-23T10:28:23;31.58;;;15.38;;
22298;SDS011;11317;51.072;17.036;2023-02-23T10:30:50;28.30;;;14.68;;
22298;SDS011;11317;51.072;17.036;2023-02-23T10:36:10;32.95;;;15.60;;
22298;SDS011;11317;51.072;17.036;2023-02-23T10:38:43;26.80;;;15.35;;
22298;SDS011;11317;51.072;17.036;2023-02-23T10:41:10;25.80;;;15.30;;
22298;SDS011;11317;51.072;17.036;2023-02-23T10:43:36;26.80;;;14.68;;
22298;SDS011;11317;51.072;17.036;2023-02-23T10:46:03;27.23;;;14.38;;
22298;SDS011;11317;51.072;17.036;2023-02-23T10:48:32;27.75;;;14.27;;
22298;SDS011;11317;51.072;17.036;2023-02-23T10:51:04;31.42;;;14.63;;
22298;SDS011;11317;51.072;17.036;2023-02-23T10:53:37;30.48;;;15.02;;
22298;SDS011;11317;51.072;17.036;2023-02-23T10:56:08;29.67;;;14.50;;
22298;SDS011;11317;51.072;17.036;2023-02-23T10:58:46;29.02;;;14.68;;
22298;SDS011;11317;51.072;17.036;2023-02-23T11:04:19;33.20;;;15.32;;
22298;SDS011;11317;51.072;17.036;2023-02-23T11:06:51;26.30;;;14.23;;
22298;SDS011;11317;51.072;17.036;2023-02-23T11:09:34;28.27;;;14.75;;
22298;SDS011;11317;51.072;17.036;2023-02-23T11:12:02;24.98;;;14.50;;
22298;SDS011;11317;51.072;17.036;2023-02-23T11:14:54;31.10;;;14.85;;
22298;SDS011;11317;51.072;17.036;2023-02-23T11:17:25;31.13;;;14.85;;
22298;SDS011;11317;51.072;17.036;2023-02-23T11:19:57;30.65;;;14.98;;
22298;SDS011;11317;51.072;17.036;2023-02-23T11:22:32;33.03;;;14.75;;
22298;SDS011;11317;51.072;17.036;2023-02-23T11:25:00;31.67;;;15.48;;
22298;SDS011;11317;51.072;17.036;2023-02-23T11:27:36;27.27;;;14.48;;
22298;SDS011;11317;51.072;17.036;2023-02-23T11:30:03;29.67;;;15.50;;
22298;SDS011;11317;51.072;17.036;2023-02-23T11:32:31;32.20;;;14.00;;
22298;SDS011;11317;51.072;17.036;2023-02-23T11:35:16;30.90;;;14.82;;
22298;SDS011;11317;51.072;17.036;2023-02-23T11:37:53;30.02;;;14.32;;
22298;SDS011;11317;51.072;17.036;2023-02-23T11:40:30;35.90;;;15.90;;
22298;SDS011;11317;51.072;17.036;2023-02-23T11:45:36;28.88;;;14.20;;
22298;SDS011;11317;51.072;17.036;2023-02-23T11:48:14;31.90;;;15.60;;
22298;SDS011;11317;51.072;17.036;2023-02-23T11:50:49;31.50;;;15.52;;
22298;SDS011;11317;51.072;17.036;2023-02-23T11:53:25;36.35;;;15.18;;
22298;SDS011;11317;51.072;17.036;2023-02-23T11:55:53;30.20;;;14.60;;
22298;SDS011;11317;51.072;17.036;2023-02-23T12:01:41;33.15;;;14.93;;
22298;SDS011;11317;51.072;17.036;2023-02-23T12:04:29;32.38;;;15.77;;
22298;SDS011;11317;51.072;17.036;2023-02-23T12:07:23;27.88;;;14.50;;
22298;SDS011;11317;51.072;17.036;2023-02-23T12:12:27;39.05;;;14.75;;
22298;SDS011;11317;51.072;17.036;2023-02-23T12:14:58;31.48;;;16.17;;
22298;SDS011;11317;51.072;17.036;2023-02-23T12:17:37;30.98;;;15.23;;
22298;SDS011;11317;51.072;17.036;2023-02-23T12:22:42;32.17;;;15.38;;
22298;SDS011;11317;51.072;17.036;2023-02-23T12:28:17;27.42;;;13.48;;
22298;SDS011;11317;51.072;17.036;2023-02-23T12:30:52;30.58;;;14.38;;
22298;SDS011;11317;51.072;17.036;2023-02-23T12:33:47;27.70;;;14.80;;
22298;SDS011;11317;51.072;17.036;2023-02-23T12:39:15;27.10;;;14.82;;
22298;SDS011;11317;51.072;17.036;2023-02-23T12:44:54;31.77;;;15.13;;
22298;SDS011;11317;51.072;17.036;2023-02-23T12:47:43;33.92;;;15.82;;
22298;SDS011;11317;51.072;17.036;2023-02-23T12:53:11;35.05;;;14.35;;
22298;SDS011;11317;51.072;17.036;2023-02-23T12:58:25;28.80;;;14.27;;
22298;SDS011;11317;51.072;17.036;2023-02-23T13:01:08;28.45;;;13.50;;
22298;SDS011;11317;51.072;17.036;2023-02-23T13:04:06;29.52;;;13.77;;
22298;SDS011;11317;51.072;17.036;2023-02-23T13:16:32;33.50;;;16.00;;
22298;SDS011;11317;51.072;17.036;2023-02-23T13:19:09;26.73;;;13.60;;
22298;SDS011;11317;51.072;17.036;2023-02-23T13:21:48;29.95;;;13.65;;
22298;SDS011;11317;51.072;17.036;2023-02-23T13:24:23;31.65;;;13.73;;
22298;SDS011;11317;51.072;17.036;2023-02-23T13:27:02;26.08;;;13.35;;
22298;SDS011;11317;51.072;17.036;2023-02-23T13:29:48;31.65;;;13.98;;
22298;SDS011;11317;51.072;17.036;2023-02-23T13:32:26;33.60;;;14.48;;
22298;SDS011;11317;51.072;17.036;2023-02-23T13:37:26;29.90;;;13.85;;
22298;SDS011;11317;51.072;17.036;2023-02-23T13:42:57;31.65;;;13.90;;
22298;SDS011;11317;51.072;17.036;2023-02-23T13:45:40;26.58;;;13.27;;
22298;SDS011;11317;51.072;17.036;2023-02-23T13:48:26;30.33;;;15.07;;
22298;SDS011;11317;51.072;17.036;2023-02-23T13:53:57;29.77;;;13.43;;
22298;SDS011;11317;51.072;17.036;2023-02-23T13:56:26;24.42;;;12.00;;
22298;SDS011;11317;51.072;17.036;2023-02-23T13:58:59;28.25;;;12.70;;
22298;SDS011;11317;51.072;17.036;2023-02-23T14:01:37;25.77;;;11.70;;
22298;SDS011;11317;51.072;17.036;2023-02-23T14:04:33;25.52;;;12.88;;
22298;SDS011;11317;51.072;17.036;2023-02-23T14:07:11;25.65;;;12.80;;
22298;SDS011;11317;51.072;17.036;2023-02-23T14:12:41;23.33;;;11.20;;
22298;SDS011;11317;51.072;17.036;2023-02-23T14:15:38;22.92;;;11.95;;
22298;SDS011;11317;51.072;17.036;2023-02-23T14:23:37;25.23;;;12.60;;
22298;SDS011;11317;51.072;17.036;2023-02-23T14:26:34;25.10;;;12.65;;
22298;SDS011;11317;51.072;17.036;2023-02-23T14:31:57;25.35;;;11.25;;
22298;SDS011;11317;51.072;17.036;2023-02-23T14:34:48;26.98;;;11.98;;
22298;SDS011;11317;51.072;17.036;2023-02-23T14:37:35;22.48;;;11.15;;
22298;SDS011;11317;51.072;17.036;2023-02-23T14:42:30;28.02;;;12.55;;
22298;SDS011;11317;51.072;17.036;2023-02-23T14:44:57;24.45;;;12.32;;
22298;SDS011;11317;51.072;17.036;2023-02-23T14:47:29;24.67;;;11.60;;
22298;SDS011;11317;51.072;17.036;2023-02-23T14:50:07;23.35;;;12.00;;
22298;SDS011;11317;51.072;17.036;2023-02-23T14:52:41;22.80;;;11.13;;
22298;SDS011;11317;51.072;17.036;2023-02-23T14:57:36;29.70;;;13.43;;
22298;SDS011;11317;51.072;17.036;2023-02-23T15:02:39;24.25;;;11.77;;
22298;SDS011;11317;51.072;17.036;2023-02-23T15:05:19;23.10;;;12.07;;
22298;SDS011;11317;51.072;17.036;2023-02-23T15:07:48;22.02;;;10.88;;
22298;SDS011;11317;51.072;17.036;2023-02-23T15:10:17;28.20;;;12.07;;
22298;SDS011;11317;51.072;17.036;2023-02-23T15:12:50;25.13;;;11.25;;
22298;SDS011;11317;51.072;17.036;2023-02-23T15:15:18;23.70;;;11.23;;
22298;SDS011;11317;51.072;17.036;2023-02-23T15:17:48;30.40;;;12.18;;
22298;SDS011;11317;51.072;17.036;2023-02-23T15:20:16;22.98;;;12.20;;
22298;SDS011;11317;51.072;17.036;2023-02-23T15:22:47;22.52;;;11.45;;
22298;SDS011;11317;51.072;17.036;2023-02-23T15:25:19;29.45;;;12.52;;
22298;SDS011;11317;51.072;17.036;2023-02-23T15:27:48;24.33;;;11.98;;
22298;SDS011;11317;51.072;17.036;2023-02-23T15:30:19;31.08;;;12.23;;
22298;SDS011;11317;51.072;17.036;2023-02-23T15:33:10;32.42;;;13.73;;
22298;SDS011;11317;51.072;17.036;2023-02-23T15:36:23;23.25;;;12.43;;
22298;SDS011;11317;51.072;17.036;2023-02-23T15:38:45;28.83;;;13.93;;
22298;SDS011;11317;51.072;17.036;2023-02-23T15:41:19;33.33;;;14.75;;
22298;SDS011;11317;51.072;17.036;2023-02-23T15:44:13;33.42;;;14.95;;
22298;SDS011;11317;51.072;17.036;2023-02-23T15:46:43;36.13;;;15.52;;
22298;SDS011;11317;51.072;17.036;2023-02-23T15:49:12;30.40;;;14.57;;
22298;SDS011;11317;51.072;17.036;2023-02-23T15:51:42;32.95;;;14.75;;
22298;SDS011;11317;51.072;17.036;2023-02-23T15:54:22;37.20;;;15.95;;
22298;SDS011;11317;51.072;17.036;2023-02-23T15:56:54;30.05;;;14.30;;
22298;SDS011;11317;51.072;17.036;2023-02-23T15:59:27;31.88;;;14.82;;
22298;SDS011;11317;51.072;17.036;2023-02-23T16:01:56;26.95;;;13.95;;
22298;SDS011;11317;51.072;17.036;2023-02-23T16:04:27;28.75;;;13.75;;
22298;SDS011;11317;51.072;17.036;2023-02-23T16:12:18;31.70;;;13.52;;
22298;SDS011;11317;51.072;17.036;2023-02-23T16:14:52;34.22;;;14.02;;
22298;SDS011;11317;51.072;17.036;2023-02-23T16:17:30;29.05;;;13.98;;
22298;SDS011;11317;51.072;17.036;2023-02-23T16:20:16;28.13;;;14.93;;
22298;SDS011;11317;51.072;17.036;2023-02-23T16:22:53;31.13;;;14.65;;
22298;SDS011;11317;51.072;17.036;2023-02-23T16:25:23;33.08;;;14.77;;
22298;SDS011;11317;51.072;17.036;2023-02-23T16:27:55;33.53;;;15.48;;
22298;SDS011;11317;51.072;17.036;2023-02-23T16:30:35;38.78;;;15.75;;
22298;SDS011;11317;51.072;17.036;2023-02-23T16:35:44;32.58;;;16.05;;
22298;SDS011;11317;51.072;17.036;2023-02-23T16:38:25;38.10;;;16.92;;
22298;SDS011;11317;51.072;17.036;2023-02-23T16:40:57;35.75;;;17.85;;
22298;SDS011;11317;51.072;17.036;2023-02-23T16:43:23;36.38;;;17.42;;
22298;SDS011;11317;51.072;17.036;2023-02-23T16:45:49;41.00;;;19.40;;
22298;SDS011;11317;51.072;17.036;2023-02-23T16:48:16;42.50;;;19.65;;
22298;SDS011;11317;51.072;17.036;2023-02-23T16:50:43;46.17;;;18.92;;